createdAt,value
2018-02-19T00:01:29.098Z,6.03
2018-02-19T00:03:57.406Z,5.57
2018-02-19T00:06:25.691Z,6.40
2018-02-19T00:08:54.906Z,6.93
2018-02-19T00:11:24.095Z,6.47
2018-02-19T00:13:52.507Z,7.00
2018-02-19T00:16:20.834Z,6.43
2018-02-19T00:18:49.301Z,7.10
2018-02-19T00:21:17.663Z,7.73
2018-02-19T00:23:46.014Z,7.53
2018-02-19T00:26:14.630Z,6.00
2018-02-19T00:28:42.926Z,6.77
2018-02-19T00:31:11.210Z,7.40
2018-02-19T00:33:40.502Z,5.93
2018-02-19T00:36:09.582Z,5.80
2018-02-19T00:38:38.082Z,8.70
2018-02-19T00:41:06.562Z,6.00
2018-02-19T00:43:35.031Z,7.30
2018-02-19T00:46:03.810Z,7.15
2018-02-19T00:48:33.065Z,8.10
2018-02-19T00:51:02.877Z,7.30
2018-02-19T00:53:31.574Z,6.53
2018-02-19T00:56:01.267Z,6.50
2018-02-19T00:58:31.289Z,7.35
2018-02-19T01:01:00.810Z,6.40
2018-02-19T01:03:29.403Z,7.00
2018-02-19T01:05:57.898Z,7.53
2018-02-19T01:08:26.304Z,7.62
2018-02-19T01:10:54.618Z,7.40
2018-02-19T01:13:22.946Z,6.80
2018-02-19T01:15:52.450Z,8.93
2018-02-19T01:18:21.345Z,6.60
2018-02-19T01:20:50.006Z,7.60
2018-02-19T01:23:19.070Z,7.13
2018-02-19T01:25:48.515Z,7.50
2018-02-19T01:28:16.800Z,7.57
2018-02-19T01:30:45.093Z,6.77
2018-02-19T01:33:13.429Z,7.97
2018-02-19T01:35:41.822Z,6.20
2018-02-19T01:38:10.111Z,5.87
2018-02-19T01:40:38.730Z,6.35
2018-02-19T01:43:07.155Z,6.17
2018-02-19T01:45:35.635Z,7.15
2018-02-19T01:48:04.150Z,6.22
2018-02-19T01:50:32.639Z,5.23
2018-02-19T01:53:01.755Z,6.72
2018-02-19T01:55:30.598Z,5.43
2018-02-19T01:57:59.244Z,6.35
2018-02-19T02:00:27.849Z,6.25
2018-02-19T02:02:56.893Z,6.33
2018-02-19T02:05:25.231Z,5.80
2018-02-19T02:07:53.634Z,6.20
2018-02-19T02:10:23.155Z,6.20
2018-02-19T02:12:52.341Z,6.60
2018-02-19T02:15:20.794Z,5.55
2018-02-19T02:17:50.014Z,7.23
2018-02-19T02:20:18.460Z,5.90
2018-02-19T02:22:47.546Z,7.27
2018-02-19T02:25:15.862Z,6.40
2018-02-19T02:27:44.243Z,7.37
2018-02-19T02:30:12.572Z,5.50
2018-02-19T02:32:40.895Z,6.50
2018-02-19T02:35:09.952Z,6.23
2018-02-19T02:37:38.235Z,6.93
2018-02-19T02:40:06.651Z,6.37
2018-02-19T02:42:35.989Z,6.60
2018-02-19T02:45:04.498Z,6.27
2018-02-19T02:47:33.027Z,7.10
2018-02-19T02:50:01.470Z,5.83
2018-02-19T02:52:30.193Z,6.17
2018-02-19T02:54:58.757Z,5.97
2018-02-19T02:57:28.883Z,5.37
2018-02-19T02:59:57.291Z,6.20
2018-02-19T03:02:25.667Z,6.00
2018-02-19T03:04:53.975Z,7.10
2018-02-19T03:07:22.427Z,6.60
2018-02-19T03:09:51.815Z,7.50
2018-02-19T03:12:20.180Z,6.10
2018-02-19T03:14:48.515Z,6.32
2018-02-19T03:17:16.802Z,5.97
2018-02-19T03:19:46.990Z,6.70
2018-02-19T03:22:15.303Z,6.00
2018-02-19T03:24:45.146Z,6.77
2018-02-19T03:27:14.215Z,7.62
2018-02-19T03:29:42.500Z,6.23
2018-02-19T03:32:10.822Z,6.57
2018-02-19T03:34:39.273Z,6.23
2018-02-19T03:37:07.722Z,6.80
2018-02-19T03:39:36.455Z,8.33
2018-02-19T03:42:04.962Z,7.70
2018-02-19T03:44:33.943Z,6.32
2018-02-19T03:47:02.796Z,7.93
2018-02-19T03:49:31.150Z,9.80
2018-02-19T03:52:00.388Z,6.97
2018-02-19T03:54:29.161Z,6.60
2018-02-19T03:56:57.522Z,7.32
2018-02-19T03:59:25.847Z,8.75
2018-02-19T04:01:54.230Z,7.07
2018-02-19T04:04:22.654Z,7.00
2018-02-19T04:06:51.279Z,7.40
2018-02-19T04:09:19.587Z,7.37
2018-02-19T04:11:47.907Z,8.43
2018-02-19T04:14:16.960Z,5.83
2018-02-19T04:16:45.282Z,7.20
2018-02-19T04:19:13.603Z,7.45
2018-02-19T04:21:41.887Z,7.00
2018-02-19T04:24:10.180Z,8.23
2018-02-19T04:26:38.563Z,8.07
2018-02-19T04:29:07.082Z,5.40
2018-02-19T04:31:36.036Z,7.25
2018-02-19T04:34:06.188Z,7.90
2018-02-19T04:36:34.784Z,6.70
2018-02-19T04:39:04.003Z,8.13
2018-02-19T04:41:32.968Z,7.07
2018-02-19T04:44:02.394Z,6.70
2018-02-19T04:46:33.849Z,8.63
2018-02-19T04:49:03.235Z,7.90
2018-02-19T04:51:31.988Z,9.23
2018-02-19T04:54:00.387Z,7.80
2018-02-19T04:56:29.204Z,7.60
2018-02-19T04:58:57.571Z,7.43
2018-02-19T05:01:25.923Z,7.55
2018-02-19T05:03:54.205Z,8.90
2018-02-19T05:06:22.692Z,8.03
2018-02-19T05:08:51.060Z,8.53
2018-02-19T05:11:19.419Z,7.93
2018-02-19T05:13:47.746Z,9.47
2018-02-19T05:16:16.066Z,9.57
2018-02-19T05:18:44.355Z,9.32
2018-02-19T05:21:13.415Z,8.10
2018-02-19T05:23:41.739Z,9.30
2018-02-19T05:26:10.058Z,8.57
2018-02-19T05:28:40.060Z,8.30
2018-02-19T05:31:08.477Z,9.77
2018-02-19T05:33:36.834Z,8.57
2018-02-19T05:36:05.215Z,8.70
2018-02-19T05:38:34.504Z,7.97
2018-02-19T05:41:03.019Z,8.70
2018-02-19T05:43:31.427Z,8.52
2018-02-19T05:46:00.692Z,7.97
2018-02-19T05:48:29.131Z,8.23
2018-02-19T05:50:57.491Z,9.17
2018-02-19T05:53:27.479Z,8.60
2018-02-19T05:55:55.806Z,8.57
2018-02-19T05:58:24.136Z,8.60
2018-02-19T06:00:53.190Z,8.33
2018-02-19T06:03:21.586Z,9.80
2018-02-19T06:05:49.922Z,9.60
2018-02-19T06:08:18.250Z,9.60
2018-02-19T06:10:46.542Z,9.70
2018-02-19T06:13:14.878Z,9.90
2018-02-19T06:15:43.931Z,9.90
2018-02-19T06:18:12.254Z,9.45
2018-02-19T06:20:40.552Z,10.32
2018-02-19T06:23:08.883Z,10.02
2018-02-19T06:25:37.526Z,10.23
2018-02-19T06:28:06.075Z,11.98
2018-02-19T06:30:34.466Z,11.10
2018-02-19T06:33:02.926Z,11.17
2018-02-19T06:35:32.194Z,10.40
2018-02-19T06:38:00.921Z,10.23
2018-02-19T06:40:29.593Z,11.32
2018-02-19T06:42:57.875Z,8.70
2018-02-19T06:45:26.207Z,9.20
2018-02-19T06:47:54.508Z,10.27
2018-02-19T06:50:23.010Z,10.18
2018-02-19T06:52:51.923Z,11.07
2018-02-19T06:55:20.371Z,11.27
2018-02-19T06:57:48.748Z,10.68
2018-02-19T07:00:17.062Z,11.32
2018-02-19T07:02:45.494Z,10.20
2018-02-19T07:05:13.791Z,10.23
2018-02-19T07:07:42.094Z,10.77
2018-02-19T07:10:10.432Z,10.87
2018-02-19T07:12:39.495Z,11.55
2018-02-19T07:15:07.959Z,12.23
2018-02-19T07:17:36.509Z,10.38
2018-02-19T07:20:05.005Z,12.10
2018-02-19T07:22:33.588Z,11.30
2018-02-19T07:25:02.148Z,10.98
2018-02-19T07:27:30.780Z,11.65
2018-02-19T07:30:00.111Z,10.95
2018-02-19T07:32:28.573Z,11.15
2018-02-19T07:34:57.035Z,10.53
2018-02-19T07:37:25.330Z,10.20
2018-02-19T07:39:54.391Z,13.17
2018-02-19T07:42:22.730Z,13.75
2018-02-19T07:44:52.020Z,14.07
2018-02-19T07:47:21.307Z,12.23
2018-02-19T07:49:50.095Z,11.90
2018-02-19T07:52:18.438Z,10.33
2018-02-19T07:54:46.832Z,10.77
2018-02-19T07:57:15.159Z,12.17
2018-02-19T07:59:43.461Z,11.23
2018-02-19T08:02:11.763Z,10.80
2018-02-19T08:04:40.099Z,11.00
2018-02-19T08:07:08.394Z,10.13
2018-02-19T08:09:36.828Z,11.10
2018-02-19T08:12:06.022Z,11.40
2018-02-19T08:14:34.512Z,11.20
2018-02-19T08:17:03.315Z,12.20
2018-02-19T08:19:31.979Z,12.17
2018-02-19T08:22:00.444Z,14.80
2018-02-19T08:24:30.691Z,14.00
2018-02-19T08:27:00.114Z,10.93
2018-02-19T08:29:28.542Z,10.43
2018-02-19T08:31:57.655Z,11.65
2018-02-19T08:34:25.963Z,11.60
2018-02-19T08:36:54.296Z,12.60
2018-02-19T08:39:23.399Z,12.00
2018-02-19T08:41:52.479Z,12.40
2018-02-19T08:44:20.979Z,10.50
2018-02-19T08:46:49.395Z,10.50
2018-02-19T08:49:18.566Z,10.60
2018-02-19T08:51:46.966Z,10.87
2018-02-19T08:54:16.023Z,11.60
2018-02-19T08:56:44.357Z,11.43
2018-02-19T08:59:12.655Z,10.33
2018-02-19T09:01:40.946Z,11.93
2018-02-19T09:04:09.367Z,12.67
2018-02-19T09:06:37.735Z,10.83
2018-02-19T09:09:06.115Z,12.53
2018-02-19T09:11:34.650Z,12.47
2018-02-19T09:14:03.049Z,11.80
2018-02-19T09:16:31.672Z,10.20
2018-02-19T09:19:01.208Z,11.00
2018-02-19T09:21:30.111Z,12.20
2018-02-19T09:23:58.423Z,11.27
2018-02-19T09:26:27.539Z,12.00
2018-02-19T09:28:55.870Z,11.87
2018-02-19T09:31:24.163Z,12.27
2018-02-19T09:33:52.454Z,11.43
2018-02-19T09:36:20.872Z,10.73
2018-02-19T09:38:49.466Z,12.20
2018-02-19T09:41:17.772Z,11.10
2018-02-19T09:43:46.112Z,11.30
2018-02-19T09:46:15.219Z,11.10
2018-02-19T09:48:43.511Z,11.30
2018-02-19T09:51:11.798Z,11.93
2018-02-19T09:53:40.140Z,12.93
2018-02-19T09:56:08.472Z,12.27
2018-02-19T09:58:36.768Z,12.80
2018-02-19T10:01:05.055Z,13.10
2018-02-19T10:03:34.224Z,11.77
2018-02-19T10:06:02.582Z,11.87
2018-02-19T10:08:31.874Z,9.97
2018-02-19T10:11:00.395Z,10.67
2018-02-19T10:13:28.988Z,8.93
2018-02-19T10:15:57.275Z,12.90
2018-02-19T10:18:25.569Z,11.17
2018-02-19T10:20:54.655Z,10.67
2018-02-19T10:23:22.981Z,11.77
2018-02-19T10:25:51.316Z,10.80
2018-02-19T10:28:19.968Z,11.03
2018-02-19T10:30:48.309Z,10.27
2018-02-19T10:33:16.611Z,11.13
2018-02-19T10:35:45.027Z,10.03
2018-02-19T10:38:13.360Z,11.37
2018-02-19T10:40:42.442Z,10.90
2018-02-19T10:43:10.730Z,9.30
2018-02-19T10:45:39.059Z,11.00
2018-02-19T10:48:07.347Z,9.93
2018-02-19T10:50:36.443Z,10.23
2018-02-19T10:53:04.899Z,10.60
2018-02-19T10:55:33.326Z,10.77
2018-02-19T10:58:01.767Z,9.50
2018-02-19T11:00:35.802Z,9.23
2018-02-19T11:03:04.178Z,10.07
2018-02-19T11:05:32.607Z,10.10
2018-02-19T11:08:01.143Z,11.40
2018-02-19T11:10:29.543Z,9.17
2018-02-19T11:12:58.648Z,10.20
2018-02-19T11:15:27.799Z,8.40
2018-02-19T11:17:56.091Z,9.13
2018-02-19T11:20:24.418Z,9.37
2018-02-19T11:22:53.502Z,9.97
2018-02-19T11:25:21.915Z,8.50
2018-02-19T11:27:50.251Z,8.60
2018-02-19T11:30:19.504Z,8.20
2018-02-19T11:32:47.834Z,10.30
2018-02-19T11:35:16.191Z,7.67
2018-02-19T11:37:45.243Z,9.13
2018-02-19T11:40:13.571Z,9.80
2018-02-19T11:42:41.858Z,9.07
2018-02-19T11:45:10.179Z,9.60
2018-02-19T11:47:38.505Z,9.20
2018-02-19T11:50:06.827Z,9.50
2018-02-19T11:52:35.871Z,8.63
2018-02-19T11:55:04.195Z,9.20
2018-02-19T11:57:32.581Z,9.70
2018-02-19T12:00:01.139Z,9.20
2018-02-19T12:02:29.883Z,8.90
2018-02-19T12:04:58.375Z,11.40
2018-02-19T12:07:26.695Z,9.20
2018-02-19T12:09:55.118Z,10.37
2018-02-19T12:12:23.418Z,10.60
2018-02-19T12:14:51.715Z,9.33
2018-02-19T12:17:20.079Z,8.83
2018-02-19T12:19:49.571Z,10.10
2018-02-19T12:22:17.965Z,9.90
2018-02-19T12:24:46.267Z,10.60
2018-02-19T12:27:14.603Z,10.90
2018-02-19T12:29:42.927Z,10.60
2018-02-19T12:32:12.012Z,10.00
2018-02-19T12:34:40.344Z,11.53
2018-02-19T12:37:09.394Z,11.37
2018-02-19T12:39:37.735Z,10.00
2018-02-19T12:42:06.091Z,11.10
2018-02-19T12:44:34.447Z,11.17
2018-02-19T12:47:03.028Z,11.83
2018-02-19T12:49:31.486Z,11.67
2018-02-19T12:52:00.047Z,13.23
2018-02-19T12:54:28.472Z,11.00
2018-02-19T12:56:56.847Z,10.97
2018-02-19T12:59:25.144Z,10.80
2018-02-19T13:01:53.470Z,10.40
2018-02-19T13:04:21.754Z,9.33
2018-02-19T13:06:50.108Z,11.57
2018-02-19T13:09:19.273Z,10.60
2018-02-19T13:11:47.659Z,11.23
2018-02-19T13:14:15.970Z,11.17
2018-02-19T13:16:44.291Z,10.33
2018-02-19T13:19:12.622Z,10.47
2018-02-19T13:21:40.915Z,11.73
2018-02-19T13:24:09.246Z,14.23
2018-02-19T13:26:38.347Z,12.67
2018-02-19T13:29:06.671Z,11.70
2018-02-19T13:31:36.054Z,10.90
2018-02-19T13:34:04.452Z,11.63
2018-02-19T13:36:32.995Z,10.97
2018-02-19T13:39:01.737Z,10.70
2018-02-19T13:41:30.171Z,12.43
2018-02-19T13:43:58.528Z,12.83
2018-02-19T13:46:26.855Z,13.30
2018-02-19T13:48:55.147Z,12.23
2018-02-19T13:51:23.725Z,13.50
2018-02-19T13:53:52.786Z,13.90
2018-02-19T13:56:21.080Z,12.00
2018-02-19T13:58:49.603Z,13.93
2018-02-19T14:01:17.939Z,12.77
2018-02-19T14:03:46.328Z,10.97
2018-02-19T14:06:14.620Z,12.07
2018-02-19T14:08:42.906Z,12.40
2018-02-19T14:11:11.236Z,13.37
2018-02-19T14:13:39.562Z,12.83
2018-02-19T14:16:07.891Z,11.57
2018-02-19T14:18:36.179Z,13.70
2018-02-19T14:21:05.270Z,10.97
2018-02-19T14:23:33.645Z,11.93
2018-02-19T14:26:03.011Z,12.77
2018-02-19T14:28:31.536Z,11.87
2018-02-19T14:31:01.648Z,12.03
2018-02-19T14:33:30.129Z,11.90
2018-02-19T14:35:58.463Z,14.10
2018-02-19T14:38:27.627Z,14.20
2018-02-19T14:40:55.966Z,13.10
2018-02-19T14:43:24.485Z,13.23
2018-02-19T14:45:52.778Z,12.57
2018-02-19T14:48:21.062Z,11.67
2018-02-19T14:50:49.442Z,12.17
2018-02-19T14:53:18.818Z,12.77
2018-02-19T14:55:47.159Z,13.53
2018-02-19T14:58:16.214Z,14.87
2018-02-19T15:00:44.546Z,13.77
2018-02-19T15:03:12.835Z,12.17
2018-02-19T15:05:41.890Z,12.93
2018-02-19T15:08:11.003Z,13.77
2018-02-19T15:10:39.401Z,12.90
2018-02-19T15:13:07.685Z,14.87
2018-02-19T15:15:36.062Z,14.00
2018-02-19T15:18:04.563Z,15.03
2018-02-19T15:20:33.034Z,11.40
2018-02-19T15:23:01.798Z,12.50
2018-02-19T15:25:30.191Z,13.23
2018-02-19T15:27:58.547Z,12.27
2018-02-19T15:30:27.632Z,12.73
2018-02-19T15:32:55.963Z,11.47
2018-02-19T15:35:24.458Z,12.77
2018-02-19T15:37:52.747Z,13.97
2018-02-19T15:40:21.103Z,13.20
2018-02-19T15:42:49.590Z,12.90
2018-02-19T15:45:18.750Z,12.30
2018-02-19T15:47:47.176Z,12.13
2018-02-19T15:50:15.474Z,12.07
2018-02-19T15:52:43.790Z,12.70
2018-02-19T15:55:12.079Z,12.70
2018-02-19T15:57:40.412Z,13.30
2018-02-19T16:00:08.747Z,13.40
2018-02-19T16:02:37.074Z,13.93
2018-02-19T16:05:05.415Z,15.03
2018-02-19T16:07:33.957Z,14.43
2018-02-19T16:10:03.359Z,12.73
2018-02-19T16:12:32.568Z,14.70
2018-02-19T16:15:01.215Z,16.53
2018-02-19T16:17:29.882Z,13.80
2018-02-19T16:19:59.011Z,13.37
2018-02-19T16:22:27.371Z,13.23
2018-02-19T16:24:55.699Z,13.43
2018-02-19T16:27:23.992Z,14.83
2018-02-19T16:29:52.336Z,12.50
2018-02-19T16:32:20.779Z,13.10
2018-02-19T16:34:49.617Z,13.30
2018-02-19T16:37:17.930Z,14.37
2018-02-19T16:39:46.236Z,12.77
2018-02-19T16:42:14.559Z,13.30
2018-02-19T16:44:42.856Z,15.97
2018-02-19T16:47:11.239Z,13.10
2018-02-19T16:49:39.534Z,12.40
2018-02-19T16:52:07.862Z,13.60
2018-02-19T16:54:36.150Z,13.43
2018-02-19T16:57:04.598Z,13.90
2018-02-19T16:59:33.114Z,15.00
2018-02-19T17:02:01.912Z,14.27
2018-02-19T17:04:31.385Z,14.70
2018-02-19T17:06:59.807Z,14.23
2018-02-19T17:09:28.092Z,14.60
2018-02-19T17:11:56.418Z,14.77
2018-02-19T17:14:24.750Z,14.50
2018-02-19T17:16:53.827Z,14.27
2018-02-19T17:19:22.148Z,16.03
2018-02-19T17:21:50.694Z,15.70
2018-02-19T17:24:19.850Z,15.43
2018-02-19T17:26:48.419Z,17.10
2018-02-19T17:29:16.814Z,14.23
2018-02-19T17:31:45.906Z,15.40
2018-02-19T17:34:14.238Z,15.13
2018-02-19T17:36:43.307Z,14.57
2018-02-19T17:39:11.634Z,14.73
2018-02-19T17:41:39.919Z,14.47
2018-02-19T17:44:08.242Z,14.43
2018-02-19T17:46:36.671Z,15.63
2018-02-19T17:49:05.846Z,15.20
2018-02-19T17:51:34.254Z,14.27
2018-02-19T17:54:03.991Z,15.17
2018-02-19T17:56:32.737Z,15.87
2018-02-19T17:59:01.391Z,14.32
2018-02-19T18:01:30.020Z,14.97
2018-02-19T18:03:58.528Z,14.70
2018-02-19T18:06:27.039Z,15.70
2018-02-19T18:08:56.324Z,14.67
2018-02-19T18:11:24.655Z,14.00
2018-02-19T18:13:52.950Z,14.80
2018-02-19T18:16:21.355Z,16.58
2018-02-19T18:18:49.747Z,15.25
2018-02-19T18:21:18.087Z,16.83
2018-02-19T18:23:47.228Z,16.10
2018-02-19T18:26:16.298Z,15.77
2018-02-19T18:28:44.634Z,16.33
2018-02-19T18:31:13.032Z,15.53
2018-02-19T18:33:41.326Z,15.03
2018-02-19T18:36:09.668Z,15.30
2018-02-19T18:38:38.731Z,16.27
2018-02-19T18:41:07.134Z,14.70
2018-02-19T18:43:35.759Z,19.80
2018-02-19T18:46:04.552Z,15.50
2018-02-19T18:48:33.163Z,16.05
2018-02-19T18:51:01.871Z,16.50
2018-02-19T18:53:31.590Z,16.73
2018-02-19T18:55:59.986Z,17.00
2018-02-19T18:58:28.363Z,18.00
2018-02-19T19:00:56.724Z,16.83
2018-02-19T19:03:25.056Z,16.58
2018-02-19T19:05:53.395Z,16.62
2018-02-19T19:08:33.783Z,15.40
2018-02-19T19:11:02.193Z,16.12
2018-02-19T19:13:30.627Z,16.13
2018-02-19T19:15:59.816Z,18.02
2018-02-19T19:18:28.127Z,15.20
2018-02-19T19:20:56.427Z,15.75
2018-02-19T19:23:24.762Z,15.07
2018-02-19T19:25:53.059Z,13.98
2018-02-19T19:28:21.479Z,13.88
2018-02-19T19:30:50.075Z,17.08
2018-02-19T19:33:18.524Z,14.55
2018-02-19T19:35:47.595Z,17.35
2018-02-19T19:38:15.926Z,17.08
2018-02-19T19:40:44.272Z,16.52
2018-02-19T19:43:12.566Z,15.27
2018-02-19T19:45:40.864Z,17.98
2018-02-19T19:48:09.970Z,16.52
2018-02-19T19:50:39.047Z,17.80
2018-02-19T19:53:07.427Z,16.23
2018-02-19T19:55:35.827Z,15.68
2018-02-19T19:58:04.235Z,15.80
2018-02-19T20:00:32.730Z,15.70
2018-02-19T20:03:01.617Z,16.08
2018-02-19T20:05:30.417Z,14.63
2018-02-19T20:07:59.334Z,14.52
2018-02-19T20:10:27.690Z,15.25
2018-02-19T20:12:56.009Z,15.90
2018-02-19T20:15:24.372Z,16.02
2018-02-19T20:17:53.445Z,15.75
2018-02-19T20:20:21.782Z,16.08
2018-02-19T20:22:50.099Z,15.93
2018-02-19T20:25:19.496Z,16.37
2018-02-19T20:27:48.846Z,16.42
2018-02-19T20:30:17.986Z,16.90
2018-02-19T20:32:47.082Z,15.63
2018-02-19T20:37:50.122Z,18.25
2018-02-19T20:40:18.981Z,18.27
2018-02-19T20:42:48.063Z,16.80
2018-02-19T20:45:16.387Z,17.55
2018-02-19T20:47:44.707Z,16.83
2018-02-19T20:50:13.011Z,17.77
2018-02-19T20:52:41.342Z,16.87
2018-02-19T20:55:09.698Z,15.77
2018-02-19T20:57:38.178Z,18.92
2018-02-19T21:00:06.538Z,16.27
2018-02-19T21:02:35.177Z,16.42
2018-02-19T21:05:03.587Z,20.40
2018-02-19T21:07:32.417Z,17.90
2018-02-19T21:10:01.183Z,17.37
2018-02-19T21:12:29.623Z,16.98
2018-02-19T21:14:57.931Z,18.40
2018-02-19T21:17:27.059Z,17.33
2018-02-19T21:19:55.358Z,16.55
2018-02-19T21:22:23.707Z,18.30
2018-02-19T21:24:52.040Z,18.27
2018-02-19T21:27:20.339Z,19.40
2018-02-19T21:29:48.731Z,19.33
2018-02-19T21:32:17.075Z,18.15
2018-02-19T21:34:45.376Z,19.90
2018-02-19T21:37:13.709Z,17.58
2018-02-19T21:39:42.993Z,18.30
2018-02-19T21:42:11.287Z,18.55
2018-02-19T21:44:39.582Z,17.92
2018-02-19T21:47:07.924Z,15.38
2018-02-19T21:49:36.986Z,18.05
2018-02-19T21:52:05.500Z,18.70
2018-02-19T21:54:34.135Z,15.57
2018-02-19T21:57:02.586Z,18.67
2018-02-19T21:59:31.340Z,18.37
2018-02-19T22:02:00.533Z,17.23
2018-02-19T22:04:28.932Z,15.98
2018-02-19T22:06:57.271Z,16.42
2018-02-19T22:09:25.599Z,17.48
2018-02-19T22:11:54.798Z,17.02
2018-02-19T22:14:23.207Z,18.05
2018-02-19T22:16:51.506Z,17.10
2018-02-19T22:19:19.827Z,18.23
2018-02-19T22:21:48.971Z,17.48
2018-02-19T22:24:18.251Z,19.02
2018-02-19T22:26:46.578Z,19.27
2018-02-19T22:29:14.914Z,15.65
2018-02-19T22:31:43.237Z,16.85
2018-02-19T22:34:11.568Z,19.15
2018-02-19T22:36:39.905Z,17.45
2018-02-19T22:39:08.958Z,18.08
2018-02-19T22:41:37.270Z,18.60
2018-02-19T22:44:05.890Z,18.50
2018-02-19T22:46:34.370Z,21.30
2018-02-19T22:49:02.905Z,20.23
2018-02-19T22:51:31.300Z,21.12
2018-02-19T22:53:59.824Z,21.17
2018-02-19T22:56:28.218Z,20.67
2018-02-19T22:58:56.630Z,21.42
2018-02-19T23:01:25.022Z,21.52
2018-02-19T23:03:53.330Z,21.60
2018-02-19T23:06:21.789Z,22.30
2018-02-19T23:08:50.202Z,23.95
2018-02-19T23:11:18.551Z,20.85
2018-02-19T23:13:47.793Z,26.08
2018-02-19T23:16:16.095Z,27.77
2018-02-19T23:18:44.422Z,22.98
2018-02-19T23:21:12.749Z,23.30
2018-02-19T23:23:41.085Z,24.00
2018-02-19T23:26:09.430Z,26.15
2018-02-19T23:28:38.492Z,24.87
2018-02-19T23:31:06.824Z,24.37
2018-02-19T23:33:35.610Z,26.05
2018-02-19T23:36:04.868Z,24.87
2018-02-19T23:38:33.316Z,29.25
2018-02-19T23:41:01.746Z,23.15
2018-02-19T23:43:30.523Z,26.00
2018-02-19T23:45:59.081Z,24.60
2018-02-19T23:48:27.563Z,26.75
2018-02-19T23:50:55.908Z,24.67
2018-02-19T23:53:25.002Z,26.58
2018-02-19T23:55:53.339Z,26.10
2018-02-19T23:58:22.402Z,26.10
